Time;durP1;ratioP1;P1;durP2;ratioP2;P2;SDS_P1;SDS_P2;PMS_P1;PMS_P2;Temp;Humidity;BMP_temperature;BMP_pressure;BME280_temperature;BME280_humidity;BME280_pressure;Samples;Min_cycle;Max_cycle;Signal;HPM_P1;HPM_P2
2021/05/10 00:00:52;;;;;;;9.63;1.50;;;;;;;20.54;57.46;99567.97;5025583;28;20751;-87
2021/05/10 00:03:20;;;;;;;3.42;1.33;;;;;;;20.77;57.65;99567.81;5008350;28;20033;-87
2021/05/10 00:05:47;;;;;;;5.85;1.40;;;;;;;20.63;58.41;99555.91;5009696;28;20093;-87
2021/05/10 00:08:12;;;;;;;10.27;1.98;;;;;;;20.63;59.17;99557.78;5011595;28;20037;-87
2021/05/10 00:10:39;;;;;;;3.55;1.25;;;;;;;20.70;58.05;99551.38;5012302;28;20083;-88
2021/05/10 00:13:06;;;;;;;2.85;1.10;;;;;;;20.64;58.76;99560.31;5029531;28;20037;-87
2021/05/10 00:15:32;;;;;;;5.28;1.30;;;;;;;20.58;59.10;99547.44;5009825;28;20030;-87
2021/05/10 00:18:04;;;;;;;4.88;1.38;;;;;;;20.55;58.97;99547.84;5007746;28;20040;-88
2021/05/10 00:20:35;;;;;;;2.88;1.30;;;;;;;20.53;58.18;99542.59;5008055;28;20064;-88
2021/05/10 00:23:02;;;;;;;2.95;1.42;;;;;;;20.63;58.77;99534.09;5009783;28;20026;-87
2021/05/10 00:25:28;;;;;;;4.32;1.13;;;;;;;20.59;56.95;99538.25;5007462;28;20486;-88
2021/05/10 00:27:54;;;;;;;3.22;1.50;;;;;;;20.50;58.08;99536.66;5004106;28;20079;-88
2021/05/10 00:30:21;;;;;;;3.03;1.27;;;;;;;20.49;59.06;99537.72;5017599;28;20037;-88
2021/05/10 00:32:47;;;;;;;2.10;1.20;;;;;;;20.48;57.51;99538.75;5012165;28;20032;-88
2021/05/10 00:35:14;;;;;;;2.95;1.60;;;;;;;20.41;57.36;99529.63;5002357;28;20418;-88
2021/05/10 00:37:39;;;;;;;3.58;1.40;;;;;;;20.44;56.05;99534.69;5016982;28;20494;-88
2021/05/10 00:40:06;;;;;;;4.53;1.67;;;;;;;20.58;55.02;99531.09;5016971;28;20045;-88
2021/05/10 00:42:32;;;;;;;14.98;1.48;;;;;;;20.72;53.71;99526.66;5024146;28;20040;-88
2021/05/10 00:44:57;;;;;;;5.88;1.27;;;;;;;20.61;53.70;99521.69;5022841;28;20390;-88
2021/05/10 00:47:23;;;;;;;5.75;1.40;;;;;;;20.73;52.99;99521.00;5032454;28;20556;-88
2021/05/10 00:49:48;;;;;;;5.68;1.20;;;;;;;20.94;50.99;99521.00;5020909;28;20037;-87
2021/05/10 00:52:14;;;;;;;3.33;1.20;;;;;;;21.02;50.13;99521.91;5023487;28;20525;-87
2021/05/10 00:54:39;;;;;;;4.93;1.02;;;;;;;21.00;49.85;99517.50;5026872;28;20025;-86
2021/05/10 00:57:05;;;;;;;7.78;1.40;;;;;;;21.13;49.01;99519.50;5018316;28;20037;-86
2021/05/10 00:59:30;;;;;;;3.33;1.73;;;;;;;21.10;49.62;99513.63;5023741;28;20033;-85
2021/05/10 01:01:56;;;;;;;2.83;1.30;;;;;;;21.05;50.02;99518.78;5023674;28;20048;-88
2021/05/10 01:04:21;;;;;;;6.20;1.30;;;;;;;20.90;50.86;99516.13;5021641;28;20393;-87
2021/05/10 01:06:47;;;;;;;7.22;1.52;;;;;;;20.84;51.69;99517.75;5008762;28;20483;-87
2021/05/10 01:09:12;;;;;;;6.90;1.30;;;;;;;20.69;52.63;99516.97;5028127;28;20120;-88
2021/05/10 01:11:38;;;;;;;2.63;1.40;;;;;;;20.64;53.04;99513.13;5011139;28;20029;-88
2021/05/10 01:14:04;;;;;;;2.22;1.20;;;;;;;20.55;53.25;99510.50;5026051;28;20041;-87
2021/05/10 01:16:35;;;;;;;2.72;1.30;;;;;;;20.73;51.87;99518.28;5009965;28;20033;-88
2021/05/10 01:19:01;;;;;;;3.70;1.40;;;;;;;20.64;51.41;99510.41;5009809;28;20041;-88
2021/05/10 01:21:29;;;;;;;4.60;1.27;;;;;;;20.80;50.56;99510.97;5010316;28;20033;-88
2021/05/10 01:23:55;;;;;;;6.72;1.23;;;;;;;20.75;49.95;99515.34;5009149;28;20041;-88
2021/05/10 01:26:21;;;;;;;9.52;1.45;;;;;;;20.85;49.36;99516.72;5012775;28;20040;-87
2021/05/10 01:28:46;;;;;;;3.03;1.27;;;;;;;20.96;48.46;99510.75;5013541;28;20021;-88
2021/05/10 01:31:15;;;;;;;8.02;1.60;;;;;;;20.97;48.40;99509.72;5007923;28;20203;-87
2021/05/10 01:33:42;;;;;;;7.95;1.35;;;;;;;21.11;46.19;99507.13;5022665;28;20056;-86
2021/05/10 01:36:07;;;;;;;11.88;1.40;;;;;;;21.15;47.04;99512.03;5020611;28;20030;-86
2021/05/10 01:38:33;;;;;;;3.58;1.23;;;;;;;21.21;46.67;99515.84;5025227;28;20046;-87
2021/05/10 01:40:58;;;;;;;5.65;1.73;;;;;;;21.22;46.06;99514.81;5023766;28;20168;-87
2021/05/10 01:43:24;;;;;;;4.55;1.00;;;;;;;21.22;46.12;99518.38;5009193;28;20467;-87
2021/05/10 01:45:49;;;;;;;5.82;1.35;;;;;;;21.41;44.82;99522.31;5004249;28;20041;-86
2021/05/10 01:48:16;;;;;;;5.43;1.02;;;;;;;21.41;45.23;99516.88;5010451;28;20113;-87
2021/05/10 01:50:45;;;;;;;5.18;1.02;;;;;;;21.66;43.22;99509.91;5025034;28;20118;-87
2021/05/10 01:53:11;;;;;;;4.55;1.27;;;;;;;21.85;42.99;99491.13;5009275;28;20082;-87
2021/05/10 01:55:37;;;;;;;3.53;1.20;;;;;;;21.83;43.07;99498.69;5015337;28;20041;-86
2021/05/10 01:58:04;;;;;;;5.47;1.10;;;;;;;21.84;42.65;99500.38;5005627;28;20038;-87
2021/05/10 02:00:35;;;;;;;3.25;1.23;;;;;;;21.79;43.12;99498.22;5024280;28;20561;-87
2021/05/10 02:03:03;;;;;;;4.47;1.10;;;;;;;21.71;43.24;99496.50;5025843;28;20120;-86
2021/05/10 02:05:29;;;;;;;8.07;1.20;;;;;;;21.83;42.21;99498.69;5006732;28;20397;-88
2021/05/10 02:07:56;;;;;;;2.08;1.20;;;;;;;21.84;42.27;99494.91;5021656;28;20034;-87
2021/05/10 02:10:36;;;;;;;2.75;1.20;;;;;;;21.82;43.09;99491.53;5022026;28;20075;-87
2021/05/10 02:13:04;;;;;;;2.45;1.08;;;;;;;21.83;42.80;99488.59;5022355;28;20041;-87
2021/05/10 02:15:33;;;;;;;4.45;1.92;;;;;;;21.80;42.46;99488.97;5025523;28;20510;-87
2021/05/10 02:18:01;;;;;;;1.75;0.70;;;;;;;21.82;42.84;99492.38;5027284;28;20515;-88
2021/05/10 02:20:27;;;;;;;4.25;1.15;;;;;;;21.86;42.63;99493.66;5007188;28;20040;-87
2021/05/10 02:22:55;;;;;;;5.82;1.38;;;;;;;21.89;42.37;99496.00;5024844;28;20088;-80
2021/05/10 02:25:26;;;;;;;4.82;1.08;;;;;;;21.86;43.41;99487.34;5018738;28;20038;-89
2021/05/10 02:27:52;;;;;;;2.67;1.17;;;;;;;21.73;44.56;99488.09;5004727;28;20045;-88
2021/05/10 02:30:20;;;;;;;6.85;1.38;;;;;;;21.78;43.25;99480.16;5004139;28;20034;-88
2021/05/10 02:32:46;;;;;;;11.65;1.85;;;;;;;21.56;44.28;99476.66;5001658;28;20029;-88
2021/05/10 02:35:13;;;;;;;4.95;1.00;;;;;;;21.60;44.29;99483.38;5014410;28;20044;-87
2021/05/10 02:37:39;;;;;;;10.32;1.80;;;;;;;21.56;44.08;99473.06;5008824;28;20041;-88
2021/05/10 02:40:07;;;;;;;3.90;1.10;;;;;;;21.65;44.02;99486.38;5026635;28;20038;-88
2021/05/10 02:42:33;;;;;;;15.45;1.20;;;;;;;21.58;44.22;99480.03;5007452;28;20037;-88
2021/05/10 02:44:59;;;;;;;13.82;2.22;;;;;;;21.54;44.92;99476.00;5006807;28;20034;-88
2021/05/10 02:47:25;;;;;;;3.63;1.10;;;;;;;21.51;44.60;99473.69;5025220;28;20520;-88
2021/05/10 02:49:55;;;;;;;4.03;1.67;;;;;;;21.53;45.05;99465.28;5003713;28;20478;-88
2021/05/10 02:52:21;;;;;;;2.78;1.00;;;;;;;21.62;44.29;99469.53;5022699;28;20498;-87
2021/05/10 02:54:47;;;;;;;5.15;1.15;;;;;;;21.56;44.69;99465.72;5029269;28;20029;-86
2021/05/10 02:57:12;;;;;;;7.68;1.13;;;;;;;21.54;44.52;99467.81;5025194;28;20040;-88
2021/05/10 02:59:38;;;;;;;4.03;1.35;;;;;;;21.46;45.21;99473.44;5027991;28;20038;-88
2021/05/10 03:02:04;;;;;;;7.00;1.45;;;;;;;21.27;45.51;99474.97;5012313;28;20090;-88
2021/05/10 03:04:30;;;;;;;4.13;1.27;;;;;;;21.32;45.75;99475.22;5007059;28;20081;-88
2021/05/10 03:06:55;;;;;;;8.48;1.55;;;;;;;21.34;46.39;99461.38;5015542;28;20134;-88
2021/05/10 03:09:21;;;;;;;8.13;1.30;;;;;;;21.23;46.67;99470.94;5009403;28;20034;-87
2021/05/10 03:11:47;;;;;;;8.18;1.20;;;;;;;21.21;46.94;99466.72;5011275;28;20025;-88
2021/05/10 03:14:13;;;;;;;9.48;1.33;;;;;;;21.10;46.88;99459.03;5010220;28;20487;-88
2021/05/10 03:16:38;;;;;;;6.75;1.80;;;;;;;21.21;46.59;99461.25;5023576;28;20041;-88
2021/05/10 03:19:09;;;;;;;5.13;1.30;;;;;;;21.11;46.90;99466.19;5028176;28;20172;-87
2021/05/10 03:21:37;;;;;;;5.88;1.25;;;;;;;21.12;46.93;99473.31;5022975;28;20045;-88
2021/05/10 03:24:05;;;;;;;3.13;1.10;;;;;;;21.17;46.69;99481.81;5018707;28;20128;-88
2021/05/10 03:26:31;;;;;;;2.47;1.40;;;;;;;21.21;46.92;99483.09;5018462;28;20656;-88
2021/05/10 03:28:57;;;;;;;5.25;1.25;;;;;;;21.19;46.25;99490.63;5033971;28;20029;-87
2021/05/10 03:31:23;;;;;;;1.77;1.10;;;;;;;21.29;46.39;99500.16;5025898;28;20403;-86
2021/05/10 03:33:48;;;;;;;2.05;0.95;;;;;;;21.33;45.79;99492.44;5028254;28;20575;-88
2021/05/10 03:36:14;;;;;;;2.10;0.90;;;;;;;21.26;46.12;99491.53;5005977;28;20025;-88
2021/05/10 03:38:39;;;;;;;3.33;1.10;;;;;;;21.33;46.14;99492.44;5021626;28;20568;-87
2021/05/10 03:41:05;;;;;;;3.63;1.40;;;;;;;21.27;46.46;99501.41;5029842;28;20044;-88
2021/05/10 03:43:30;;;;;;;3.08;1.20;;;;;;;21.18;46.93;99510.75;5008973;28;20042;-87
2021/05/10 03:45:56;;;;;;;2.97;1.20;;;;;;;21.26;46.24;99505.19;5017027;28;20038;-87
2021/05/10 03:48:21;;;;;;;2.50;0.90;;;;;;;21.30;46.43;99493.66;5031563;28;20234;-86
2021/05/10 03:50:46;;;;;;;6.72;1.50;;;;;;;21.23;46.56;99491.94;5008329;28;20082;-87
2021/05/10 03:53:12;;;;;;;2.67;1.30;;;;;;;21.19;46.75;99486.00;5008728;28;20022;-87
2021/05/10 03:55:39;;;;;;;5.28;1.00;;;;;;;21.16;46.71;99480.97;5009609;28;20040;-87
2021/05/10 03:58:04;;;;;;;4.72;1.17;;;;;;;21.18;46.67;99506.16;5028166;28;20094;-87
2021/05/10 04:00:30;;;;;;;5.57;1.58;;;;;;;21.30;46.09;99501.00;5022859;28;20025;-86
2021/05/10 04:02:55;;;;;;;9.00;1.30;;;;;;;21.27;46.32;99498.69;5029920;28;20418;-83
2021/05/10 04:07:59;;;;;;;2.75;0.90;;;;;;;21.36;46.33;99492.03;5027220;28;20127;-87
2021/05/10 04:10:40;;;;;;;2.40;1.08;;;;;;;21.25;46.76;99487.97;5013990;28;20033;-87
2021/05/10 04:15:51;;;;;;;5.20;1.25;;;;;;;21.08;47.99;99491.97;5021068;28;20037;-87
2021/05/10 04:18:17;;;;;;;1.20;0.80;;;;;;;21.14;47.68;99498.53;5009209;28;20026;-87
2021/05/10 04:20:57;;;;;;;3.13;1.15;;;;;;;21.21;47.11;99507.66;5025200;28;20116;-87
2021/05/10 04:24:07;;;;;;;9.20;1.30;;;;;;;21.14;47.67;99509.44;5023310;28;20042;-87
2021/05/10 04:26:41;;;;;;;5.45;1.10;;;;;;;21.15;47.71;99517.47;5003485;28;20037;-86
2021/05/10 04:29:07;;;;;;;4.85;1.50;;;;;;;21.12;48.64;99527.88;5025761;28;20513;-87
2021/05/10 04:31:32;;;;;;;17.42;2.40;;;;;;;21.13;47.83;99535.88;5015918;28;20061;-86
2021/05/10 04:33:58;;;;;;;3.65;1.40;;;;;;;21.04;48.43;99538.94;5021072;28;20068;-86
2021/05/10 04:36:23;;;;;;;6.18;1.50;;;;;;;21.06;48.59;99539.59;5012230;28;20033;-87
2021/05/10 04:38:49;;;;;;;8.02;1.65;;;;;;;21.10;48.97;99525.38;5003985;28;20470;-86
2021/05/10 04:41:14;;;;;;;8.18;1.00;;;;;;;21.12;48.42;99538.81;5011895;28;20371;-86
2021/05/10 04:43:40;;;;;;;8.65;1.27;;;;;;;20.96;49.24;99537.19;5027796;28;20095;-87
2021/05/10 04:46:05;;;;;;;5.82;1.40;;;;;;;21.00;49.32;99542.06;5027088;28;20041;-85
2021/05/10 04:48:30;;;;;;;1.55;1.05;;;;;;;20.90;49.79;99547.00;5018401;28;20037;-84
2021/05/10 04:50:56;;;;;;;3.53;0.90;;;;;;;20.97;49.37;99553.38;5025947;28;20415;-86
2021/05/10 04:53:22;;;;;;;5.43;1.25;;;;;;;20.98;49.63;99560.50;5011620;28;20030;-86
2021/05/10 04:55:47;;;;;;;1.55;1.02;;;;;;;21.06;49.68;99566.88;5008626;28;20446;-87
2021/05/10 04:58:13;;;;;;;5.82;1.15;;;;;;;21.02;49.63;99560.97;5007688;28;20399;-87
2021/05/10 05:00:39;;;;;;;6.10;1.40;;;;;;;21.04;50.16;99568.97;5022863;28;20034;-87
2021/05/10 05:03:04;;;;;;;4.13;1.27;;;;;;;20.99;50.26;99566.78;5027566;28;20341;-86
2021/05/10 05:05:30;;;;;;;5.72;1.42;;;;;;;21.02;49.86;99584.66;5017952;28;20124;-86
2021/05/10 05:07:55;;;;;;;1.90;1.10;;;;;;;20.95;50.46;99588.16;5007277;28;20065;-81
2021/05/10 05:10:21;;;;;;;3.80;1.08;;;;;;;21.03;49.65;99595.41;5027521;28;20029;-86
2021/05/10 05:12:50;;;;;;;3.72;1.00;;;;;;;21.00;50.16;99593.88;5008807;28;20299;-87
2021/05/10 05:15:18;;;;;;;4.53;1.35;;;;;;;21.02;50.13;99580.06;5024990;28;20052;-86
2021/05/10 05:17:44;;;;;;;5.45;1.50;;;;;;;21.00;50.53;99584.84;5025710;28;20117;-83
2021/05/10 05:20:10;;;;;;;2.97;0.98;;;;;;;21.02;50.86;99606.50;5026852;28;20120;-88
2021/05/10 05:22:36;;;;;;;2.75;1.00;;;;;;;20.92;51.43;99610.38;5010341;28;20045;-86
2021/05/10 05:25:06;;;;;;;3.78;1.10;;;;;;;20.88;51.72;99619.97;5025763;28;20037;-85
2021/05/10 05:27:32;;;;;;;7.18;1.10;;;;;;;20.87;52.34;99631.06;5006745;28;20034;-87
2021/05/10 05:29:57;;;;;;;5.55;1.20;;;;;;;20.94;51.26;99641.03;5001663;28;20219;-87
2021/05/10 05:32:23;;;;;;;8.23;1.50;;;;;;;20.79;51.96;99626.59;5023096;28;20037;-86
2021/05/10 05:34:49;;;;;;;5.65;1.20;;;;;;;20.83;52.48;99627.91;5024063;28;20034;-87
2021/05/10 05:37:15;;;;;;;2.35;1.00;;;;;;;20.76;52.91;99642.47;5025401;28;20036;-86
2021/05/10 05:39:40;;;;;;;6.72;2.10;;;;;;;20.82;52.86;99642.56;5025873;28;20038;-86
2021/05/10 05:42:06;;;;;;;5.35;1.27;;;;;;;20.78;52.88;99619.44;5025804;28;20052;-86
2021/05/10 05:44:37;;;;;;;3.50;1.63;;;;;;;20.71;53.70;99617.66;5008251;28;20624;-86
2021/05/10 05:47:04;;;;;;;10.32;1.38;;;;;;;20.69;53.67;99622.44;5008223;28;20417;-86
2021/05/10 05:49:34;;;;;;;9.40;1.60;;;;;;;20.65;55.16;99624.72;5010040;28;20033;-86
2021/05/10 05:52:03;;;;;;;15.77;1.98;;;;;;;20.61;55.89;99630.75;5026393;28;20025;-86
2021/05/10 05:54:29;;;;;;;5.72;1.15;;;;;;;20.55;56.31;99629.63;5015883;28;20044;-87
2021/05/10 05:56:54;;;;;;;5.53;1.75;;;;;;;20.63;55.48;99626.78;5018176;28;20486;-87
2021/05/10 05:59:19;;;;;;;5.43;1.52;;;;;;;20.66;55.75;99626.41;5027492;28;20029;-86
2021/05/10 06:01:47;;;;;;;7.68;1.20;;;;;;;20.68;55.57;99637.97;5018547;28;20713;-86
2021/05/10 06:04:12;;;;;;;10.88;1.80;;;;;;;20.60;55.45;99651.72;5028351;28;20036;-86
2021/05/10 06:06:38;;;;;;;7.13;1.42;;;;;;;20.64;55.33;99666.66;5030013;28;20559;-86
2021/05/10 06:09:06;;;;;;;6.03;1.98;;;;;;;20.63;56.11;99689.50;5021623;28;20025;-86
2021/05/10 06:11:32;;;;;;;6.90;1.50;;;;;;;20.67;56.73;99693.56;5009765;28;20358;-86
2021/05/10 06:13:58;;;;;;;6.82;1.17;;;;;;;20.70;56.22;99704.06;5029104;28;20409;-85
2021/05/10 06:16:27;;;;;;;11.82;1.40;;;;;;;20.69;56.30;99706.97;5013453;28;20045;-86
2021/05/10 06:18:52;;;;;;;4.90;1.95;;;;;;;20.69;55.93;99713.28;5006409;28;20483;-86
2021/05/10 06:21:19;;;;;;;9.98;1.23;;;;;;;20.54;56.99;99721.47;5010865;28;20029;-86
2021/05/10 06:23:44;;;;;;;9.45;1.60;;;;;;;20.54;56.87;99715.19;5009903;28;20123;-87
2021/05/10 06:26:10;;;;;;;8.32;2.38;;;;;;;20.55;56.80;99719.59;5026521;28;20118;-86
2021/05/10 06:28:35;;;;;;;7.22;1.58;;;;;;;20.59;56.77;99723.63;5010914;28;20389;-86
2021/05/10 06:31:01;;;;;;;2.70;1.27;;;;;;;20.60;57.32;99730.78;5004769;28;20041;-84
2021/05/10 06:33:26;;;;;;;10.00;1.70;;;;;;;20.70;56.65;99708.69;5006817;28;20032;-86
2021/05/10 06:35:52;;;;;;;6.03;1.20;;;;;;;20.78;56.74;99722.22;5010016;28;20042;-86
2021/05/10 06:38:18;;;;;;;5.63;1.90;;;;;;;20.97;56.68;99732.56;5007085;28;20037;-86
2021/05/10 06:40:43;;;;;;;12.00;1.38;;;;;;;21.16;55.95;99742.09;5010889;28;20039;-86
2021/05/10 06:43:09;;;;;;;6.53;1.45;;;;;;;21.16;55.80;99753.00;5011372;28;20037;-87
2021/05/10 06:45:34;;;;;;;5.70;1.40;;;;;;;21.22;55.52;99746.78;5008337;28;20430;-86
2021/05/10 06:48:00;;;;;;;7.50;1.20;;;;;;;21.20;55.89;99729.75;5007727;28;20432;-86
2021/05/10 06:50:26;;;;;;;4.78;1.23;;;;;;;21.73;54.77;99734.75;5018733;28;20501;-85
2021/05/10 06:52:52;;;;;;;12.68;1.67;;;;;;;22.25;53.31;99744.53;5029601;28;20040;-86
2021/05/10 06:55:17;;;;;;;18.48;1.55;;;;;;;22.62;51.34;99734.31;5018329;28;20045;-86
2021/05/10 06:57:43;;;;;;;6.18;1.30;;;;;;;22.52;50.19;99713.63;5010628;28;20099;-86
2021/05/10 07:00:09;;;;;;;4.00;1.30;;;;;;;22.93;50.50;99730.13;5006467;28;20040;-87
2021/05/10 07:02:35;;;;;;;8.52;1.92;;;;;;;22.81;48.93;99755.50;5010316;28;20128;-87
2021/05/10 07:05:01;;;;;;;2.53;0.63;;;;;;;22.53;49.85;99753.59;5005544;28;20150;-84
2021/05/10 07:07:26;;;;;;;2.05;0.73;;;;;;;22.17;51.24;99763.81;5028286;28;20167;-86
2021/05/10 07:09:52;;;;;;;3.30;0.88;;;;;;;21.85;50.34;99769.78;5025226;28;20126;-81
2021/05/10 07:12:17;;;;;;;2.75;0.60;;;;;;;21.47;50.31;99782.78;5026276;28;20144;-87
2021/05/10 07:14:43;;;;;;;1.98;0.60;;;;;;;21.25;51.69;99787.34;5029493;28;20165;-85
2021/05/10 07:17:09;;;;;;;3.00;0.50;;;;;;;21.06;52.49;99790.59;5026734;28;20042;-85
2021/05/10 07:19:34;;;;;;;1.58;0.40;;;;;;;21.09;52.48;99784.78;5024366;28;20037;-86
2021/05/10 07:22:00;;;;;;;3.45;0.60;;;;;;;21.06;53.49;99798.78;5012139;28;20390;-83
2021/05/10 07:24:26;;;;;;;0.73;0.40;;;;;;;21.11;53.27;99810.81;5028153;28;20804;-86
2021/05/10 07:26:51;;;;;;;2.75;0.65;;;;;;;21.08;53.37;99832.19;5009060;28;20049;-87
2021/05/10 07:29:17;;;;;;;1.05;0.40;;;;;;;20.86;53.83;99833.97;5017263;28;20033;-86
2021/05/10 07:31:42;;;;;;;0.80;0.30;;;;;;;20.76;54.09;99845.13;5032655;28;20061;-87
2021/05/10 07:34:08;;;;;;;0.80;0.40;;;;;;;20.68;55.00;99845.22;5032038;28;20056;-87
2021/05/10 07:36:33;;;;;;;0.70;0.50;;;;;;;20.55;55.77;99869.56;5012411;28;20034;-84
2021/05/10 07:38:59;;;;;;;2.65;0.50;;;;;;;20.51;56.43;99851.84;5030228;28;20041;-88
2021/05/10 07:41:24;;;;;;;1.83;0.50;;;;;;;20.43;56.95;99839.13;5010676;28;20072;-85
2021/05/10 07:43:50;;;;;;;2.55;0.47;;;;;;;20.45;56.60;99842.53;5028874;28;20064;-86
2021/05/10 07:46:15;;;;;;;1.92;1.27;;;;;;;20.44;56.40;99849.00;5013481;28;20033;-85
2021/05/10 07:48:41;;;;;;;0.75;0.38;;;;;;;20.44;57.30;99850.88;5027519;28;20478;-85
2021/05/10 07:51:06;;;;;;;0.45;0.40;;;;;;;20.53;56.89;99861.56;5008461;28;20033;-87
2021/05/10 07:53:32;;;;;;;4.05;0.93;;;;;;;20.63;56.59;99883.09;5010976;28;20095;-85
2021/05/10 07:55:57;;;;;;;1.25;0.55;;;;;;;20.61;57.00;99901.53;5026895;28;20068;-85
2021/05/10 07:58:24;;;;;;;2.55;0.47;;;;;;;20.60;56.95;99888.94;5006004;28;20026;-85
2021/05/10 08:00:56;;;;;;;2.47;0.50;;;;;;;20.55;56.43;99891.38;5029841;28;20033;-84
2021/05/10 08:03:24;;;;;;;0.50;0.40;;;;;;;20.67;56.51;99884.44;5031069;28;20030;-84
2021/05/10 08:05:49;;;;;;;3.20;0.52;;;;;;;20.87;56.50;99882.88;5025670;28;20037;-84
2021/05/10 08:08:17;;;;;;;0.55;0.50;;;;;;;20.86;57.03;99881.16;5012184;28;20107;-82
2021/05/10 08:10:45;;;;;;;1.17;0.40;;;;;;;20.68;56.80;99885.25;5029435;28;20044;-84
2021/05/10 08:13:11;;;;;;;2.85;0.25;;;;;;;20.61;57.58;99867.97;5028164;28;20052;-85
2021/05/10 08:15:37;;;;;;;3.15;0.50;;;;;;;20.55;58.04;99877.72;5012128;28;20261;-86
2021/05/10 08:18:03;;;;;;;0.50;0.40;;;;;;;20.67;57.93;99884.44;5001837;28;20093;-86
2021/05/10 08:20:29;;;;;;;0.85;0.60;;;;;;;20.71;57.34;99904.84;5026961;28;20037;-86
2021/05/10 08:22:54;;;;;;;6.28;0.75;;;;;;;20.90;57.00;99906.22;5029379;28;20029;-86
2021/05/10 08:25:20;;;;;;;0.60;0.50;;;;;;;21.57;55.21;99928.91;5010933;28;20029;-86
2021/05/10 08:27:45;;;;;;;2.03;0.40;;;;;;;21.98;53.25;99936.63;5009245;28;20070;-85
2021/05/10 08:30:12;;;;;;;1.55;0.47;;;;;;;22.44;51.67;99935.28;5023750;28;20040;-86
2021/05/10 08:32:38;;;;;;;2.05;0.55;;;;;;;22.89;50.98;99930.50;5015996;28;20354;-85
2021/05/10 08:35:05;;;;;;;3.10;0.55;;;;;;;22.89;50.48;99925.88;4992434;28;20064;-84
2021/05/10 08:37:31;;;;;;;0.55;0.30;;;;;;;21.98;51.37;99942.94;5009135;28;20079;-85
2021/05/10 08:39:57;;;;;;;3.03;0.77;;;;;;;21.86;51.71;99940.84;5011853;28;20063;-86
2021/05/10 08:42:23;;;;;;;1.17;0.30;;;;;;;21.57;53.02;99931.63;5006199;28;20213;-85
2021/05/10 08:44:49;;;;;;;1.15;0.40;;;;;;;21.18;52.77;99907.31;5006314;28;20749;-85
2021/05/10 08:47:14;;;;;;;1.38;0.50;;;;;;;21.16;54.70;99909.41;5015949;28;20072;-84
2021/05/10 08:49:40;;;;;;;2.10;0.50;;;;;;;21.09;54.76;99935.72;5019765;28;20119;-85
2021/05/10 08:52:06;;;;;;;1.23;0.40;;;;;;;21.18;53.84;99963.78;5025467;28;20324;-87
2021/05/10 08:54:32;;;;;;;0.60;0.50;;;;;;;21.07;54.94;99959.59;5009777;28;20057;-83
2021/05/10 08:57:02;;;;;;;2.05;0.50;;;;;;;21.08;54.69;99968.63;5015349;28;20450;-83
2021/05/10 08:59:28;;;;;;;5.47;0.73;;;;;;;20.93;55.64;99977.63;5026755;28;20462;-83
2021/05/10 09:02:03;;;;;;;0.50;0.35;;;;;;;20.95;56.51;99963.81;5005604;28;20124;-84
2021/05/10 09:04:36;;;;;;;1.00;0.50;;;;;;;20.97;56.24;99950.84;5011998;28;20029;-85
2021/05/10 09:07:14;;;;;;;1.33;0.30;;;;;;;21.21;56.49;99947.06;5008266;28;20108;-84
2021/05/10 09:09:58;;;;;;;1.60;0.82;;;;;;;21.13;53.99;99966.19;5018540;28;20037;-84
2021/05/10 09:12:38;;;;;;;0.75;0.55;;;;;;;21.07;54.82;99988.75;5021817;28;20087;-84
2021/05/10 09:15:15;;;;;;;5.18;0.65;;;;;;;20.95;53.76;99994.66;5021774;28;20087;-85
2021/05/10 09:17:48;;;;;;;0.65;0.40;;;;;;;20.86;52.62;100009.38;5024788;28;20036;-85
2021/05/10 09:20:16;;;;;;;1.20;0.73;;;;;;;20.65;54.17;100001.03;5020080;28;20033;-84
2021/05/10 09:22:56;;;;;;;3.17;0.60;;;;;;;20.57;54.12;99995.63;5021712;28;20041;-85
2021/05/10 09:25:33;;;;;;;0.90;0.52;;;;;;;20.73;54.20;99998.25;5023725;28;20045;-84
2021/05/10 09:28:35;;;;;;;2.75;0.80;;;;;;;20.70;54.69;100009.50;5009565;28;20446;-85
2021/05/10 09:31:03;;;;;;;5.07;0.90;;;;;;;20.82;54.29;100004.47;5012361;28;20044;-84
2021/05/10 09:33:29;;;;;;;1.90;0.60;;;;;;;20.97;54.88;100008.13;5016969;28;20055;-85
2021/05/10 09:36:00;;;;;;;2.20;0.80;;;;;;;21.05;54.26;99993.53;5005891;28;20045;-85
2021/05/10 09:38:28;;;;;;;2.13;1.13;;;;;;;21.08;53.59;100004.09;5025984;28;20591;-85
2021/05/10 09:41:08;;;;;;;2.08;0.80;;;;;;;21.14;53.02;100012.41;5005133;28;20029;-85
2021/05/10 09:43:36;;;;;;;0.88;0.80;;;;;;;21.07;53.97;100010.59;5022226;28;20424;-85
2021/05/10 09:46:11;;;;;;;6.30;0.90;;;;;;;21.20;53.57;100025.34;5005684;28;20029;-86
2021/05/10 09:48:39;;;;;;;3.30;1.00;;;;;;;21.20;52.86;100038.16;5003491;28;20128;-85
2021/05/10 09:51:09;;;;;;;2.45;0.93;;;;;;;21.18;53.43;100045.66;5013817;28;20385;-86
2021/05/10 09:53:47;;;;;;;0.82;0.77;;;;;;;21.18;54.23;100051.13;5019404;28;20065;-86
2021/05/10 09:56:16;;;;;;;2.30;0.85;;;;;;;20.99;55.34;100063.34;5019753;28;20063;-85
2021/05/10 09:58:46;;;;;;;1.30;0.70;;;;;;;20.91;55.48;100083.38;5005419;28;20036;-84
2021/05/10 10:01:12;;;;;;;1.63;0.80;;;;;;;20.74;56.16;100059.94;5002879;28;20034;-84
2021/05/10 10:03:40;;;;;;;1.10;0.73;;;;;;;20.88;56.59;100072.81;5006147;28;20080;-83
2021/05/10 10:06:14;;;;;;;3.47;1.17;;;;;;;20.77;56.66;100086.84;5008046;28;20120;-85
2021/05/10 10:08:41;;;;;;;2.38;1.10;;;;;;;20.84;57.10;100076.94;5006669;28;20044;-86
2021/05/10 10:11:17;;;;;;;2.30;1.10;;;;;;;20.75;57.44;100083.44;5008329;28;20036;-86
2021/05/10 10:13:44;;;;;;;4.15;0.80;;;;;;;20.78;57.52;100091.28;5021163;28;20033;-85
2021/05/10 10:16:10;;;;;;;1.50;0.85;;;;;;;20.77;57.83;100097.78;5022823;28;20498;-84
2021/05/10 10:18:40;;;;;;;5.20;1.40;;;;;;;20.78;57.95;100101.34;5024651;28;20087;-86
2021/05/10 10:21:08;;;;;;;0.88;0.75;;;;;;;20.46;60.34;100100.47;5021751;28;20037;-85
2021/05/10 10:23:35;;;;;;;1.70;1.00;;;;;;;20.55;60.07;100093.94;5009058;28;20107;-85
2021/05/10 10:26:04;;;;;;;5.93;0.80;;;;;;;20.43;60.69;100113.63;5013038;28;20033;-85
2021/05/10 10:28:30;;;;;;;1.05;0.73;;;;;;;20.41;59.85;100104.78;5020530;28;20569;-84
2021/05/10 10:30:59;;;;;;;2.25;0.75;;;;;;;20.35;60.04;100119.97;5016105;28;20386;-85
2021/05/10 10:33:29;;;;;;;1.13;0.85;;;;;;;20.22;60.09;100122.34;5024240;28;20033;-85
2021/05/10 10:36:00;;;;;;;4.15;1.42;;;;;;;20.26;62.02;100114.66;5024506;28;20034;-84
2021/05/10 10:38:31;;;;;;;2.85;0.75;;;;;;;20.27;61.33;100106.31;5012973;28;20374;-85
2021/05/10 10:41:16;;;;;;;2.70;0.80;;;;;;;20.44;60.69;100120.75;5032764;28;20087;-86
2021/05/10 10:43:41;;;;;;;5.13;0.80;;;;;;;20.66;60.66;100111.81;5018238;28;20045;-86
2021/05/10 10:46:29;;;;;;;1.73;0.65;;;;;;;20.65;60.69;100110.09;5009106;28;20037;-86
2021/05/10 10:48:57;;;;;;;1.20;0.88;;;;;;;20.83;60.84;100118.88;5025543;28;20061;-83
2021/05/10 10:51:23;;;;;;;1.15;0.65;;;;;;;21.02;59.41;100116.72;5026318;28;20030;-85
2021/05/10 10:53:55;;;;;;;1.23;0.68;;;;;;;21.07;60.12;100117.88;5008964;28;20157;-84
2021/05/10 10:56:48;;;;;;;2.70;0.77;;;;;;;21.32;59.55;100137.69;5036282;28;20061;-86
2021/05/10 10:59:26;;;;;;;1.52;0.70;;;;;;;21.46;57.37;100153.28;5030683;28;20041;-85
2021/05/10 11:01:53;;;;;;;2.70;0.85;;;;;;;21.28;57.14;100148.13;5028187;28;20037;-86
2021/05/10 11:04:23;;;;;;;3.28;1.10;;;;;;;21.51;57.18;100122.69;5013681;28;20116;-85
2021/05/10 11:06:50;;;;;;;3.08;0.75;;;;;;;21.74;57.64;100131.69;5030531;28;20056;-85
2021/05/10 11:09:16;;;;;;;1.30;0.65;;;;;;;21.87;58.09;100144.72;5018782;28;20083;-85
2021/05/10 11:11:41;;;;;;;2.45;0.70;;;;;;;21.79;56.90;100138.31;5015112;28;20028;-85
2021/05/10 11:14:14;;;;;;;2.83;1.13;;;;;;;21.83;57.54;100149.72;5017415;28;20060;-85
2021/05/10 11:16:53;;;;;;;2.25;0.95;;;;;;;21.57;56.68;100144.66;5008521;28;20120;-85
2021/05/10 11:19:36;;;;;;;2.20;1.15;;;;;;;21.45;57.56;100148.84;5029238;28;20033;-85
2021/05/10 11:22:28;;;;;;;1.33;0.80;;;;;;;21.45;58.25;100156.19;5032612;28;20727;-85
2021/05/10 11:24:53;;;;;;;4.10;0.70;;;;;;;21.27;57.56;100153.75;5006803;28;20037;-85
2021/05/10 11:27:28;;;;;;;1.90;0.85;;;;;;;21.33;58.20;100158.50;5022034;28;20040;-85
2021/05/10 11:29:56;;;;;;;2.60;0.73;;;;;;;21.27;58.04;100165.53;5010918;28;20095;-86
2021/05/10 11:32:23;;;;;;;1.05;0.73;;;;;;;21.22;57.22;100183.50;5014066;28;20431;-82
2021/05/10 11:34:49;;;;;;;2.00;1.13;;;;;;;20.81;59.33;100197.28;5014588;28;20060;-83
2021/05/10 11:37:27;;;;;;;3.42;1.05;;;;;;;20.06;60.77;100224.03;5031972;28;20493;-80
2021/05/10 11:39:57;;;;;;;2.78;1.27;;;;;;;19.42;63.93;100229.44;5026353;28;20390;-83